Airfield :
LOGIN :

Register | Disclaimer

   EN    FR    IT 

 










Legend :    VFR   Marginal VFR   IFR   Intensive IFR   Very Intensive IFR
Visi :
Ceiling :
>= 8 km
>= 3000ft
5 to 8 km
1000 to 3000 ft
1500m to 5 km
500 to 1000 ft
800 to 1500m
200 to 500 ft
< 800m
< 200 ft
Symbols :   Thunderstorms  Fog  Heavy snow  Heavy precipitations  Wind > 20 kt
SIGMETs :     Misc.  Thunderstorms  Icing  Turbulence  Mountain Waves  Volcanic Ashes






- Airport Elevation : 124 ft
- IATA code : AVN


LFMV - Avignon Caumont

CURRENT METAR :
  • 261200Z AUTO 32010KT 270V340 9999 -RADZ FEW074 OVC088 15/03 Q1013 NOSIG

EXPIRED METARs :
  • 261130Z AUTO 30014KT 260V320 CAVOK 16/02 Q1013 NOSIG
  • 261100Z AUTO 34005KT 310V010 9999 FEW066 OVC120 16/07 Q1013 NOSIG
  • 261030Z AUTO 33008KT 290V360 9999 FEW066 OVC110 16/08 Q1013
  • 261000Z AUTO 34006KT 300V020 9999 FEW022 BKN120 16/10 Q1013 NOSIG
  • 260930Z AUTO 31004KT 240V040 9999 FEW064 BKN120 15/10 Q1013 NOSIG

TAF TAF LFMV
Valid from the 26 at 09:00 until the 27 at 09:00 UTC


260800Z 2609/2709 29012KT CAVOK
TEMPO 2614/2618 29020G30KT
BECMG 2623/2701 35010KT
BECMG 2707/2709 34020G30KT
ATIS : +33 4 90 84 32 84



MET'MAP, your aeronautical weather chart ! - Copyright ORBIFLY December 2007 - Disclaimer

ORBIFLY MET'MAP TEAM :

Programming & Development : Alexandra Zaïnal
Original concept : Baudouin d'Aumeries
Technical & hardware support : Manuel Goepfert
Assistance : Marc-Olivier Méhu




SOURCES & CREDITS :

   NOAA